createdAt,value
2022-10-25T00:01:31.661Z,5.35
2022-10-25T00:03:58.464Z,2.85
2022-10-25T00:06:24.907Z,2.60
2022-10-25T00:08:51.727Z,4.57
2022-10-25T00:11:23.999Z,3.33
2022-10-25T00:13:52.383Z,3.45
2022-10-25T00:16:21.731Z,6.57
2022-10-25T00:18:48.271Z,2.92
2022-10-25T00:21:14.644Z,3.20
2022-10-25T00:23:42.167Z,5.97
2022-10-25T00:26:10.557Z,3.90
2022-10-25T00:28:37.441Z,3.97
2022-10-25T00:31:08.677Z,4.28
2022-10-25T00:33:36.277Z,2.80
2022-10-25T00:36:16.326Z,3.50
2022-10-25T00:38:43.940Z,2.58
2022-10-25T00:41:10.882Z,2.10
2022-10-25T00:43:43.675Z,3.45
2022-10-25T00:46:17.846Z,2.15
2022-10-25T00:48:55.950Z,3.60
2022-10-25T00:51:25.752Z,3.88
2022-10-25T00:53:52.547Z,1.90
2022-10-25T00:56:27.384Z,3.17
2022-10-25T00:58:56.995Z,3.30
2022-10-25T01:01:24.751Z,2.10
2022-10-25T01:03:53.552Z,3.05
2022-10-25T01:06:25.063Z,2.80
2022-10-25T01:08:53.522Z,1.20
2022-10-25T01:11:20.344Z,0.98
2022-10-25T01:13:48.645Z,2.20
2022-10-25T01:16:42.759Z,1.30
2022-10-25T01:19:27.643Z,3.75
2022-10-25T01:21:58.889Z,1.92
2022-10-25T01:24:55.324Z,4.85
2022-10-25T01:27:40.719Z,0.77
2022-10-25T01:30:21.758Z,2.90
2022-10-25T01:32:54.080Z,1.10
2022-10-25T01:35:28.790Z,1.10
2022-10-25T01:37:58.172Z,1.08
2022-10-25T01:41:02.507Z,2.30
2022-10-25T01:43:57.285Z,0.65
2022-10-25T01:46:45.705Z,2.42
2022-10-25T01:49:23.571Z,1.60
2022-10-25T01:51:49.914Z,2.03
2022-10-25T01:54:27.495Z,0.88
2022-10-25T01:57:23.677Z,0.82
2022-10-25T02:00:13.974Z,1.13
2022-10-25T02:02:59.018Z,0.75
2022-10-25T02:05:47.150Z,2.03
2022-10-25T02:08:33.240Z,3.08
2022-10-25T02:11:03.774Z,0.73
2022-10-25T02:13:48.155Z,2.00
2022-10-25T02:16:24.612Z,3.90
2022-10-25T02:18:55.699Z,1.85
2022-10-25T02:23:50.765Z,3.35
2022-10-25T02:26:18.840Z,1.65
2022-10-25T02:28:46.401Z,1.75
2022-10-25T02:31:19.727Z,5.22
2022-10-25T02:33:47.633Z,2.00
2022-10-25T02:36:20.051Z,3.72
2022-10-25T02:38:47.926Z,3.28
2022-10-25T02:41:14.872Z,5.28
2022-10-25T02:43:41.835Z,2.75
2022-10-25T02:46:14.819Z,2.08
2022-10-25T02:48:41.652Z,1.63
2022-10-25T02:51:09.054Z,2.78
2022-10-25T02:53:36.344Z,1.10
2022-10-25T02:56:06.703Z,1.63
2022-10-25T02:58:35.206Z,2.42
2022-10-25T03:01:02.266Z,0.88
2022-10-25T03:03:29.224Z,1.67
2022-10-25T03:05:56.250Z,1.50
2022-10-25T03:08:23.726Z,1.17
2022-10-25T03:10:50.824Z,2.05
2022-10-25T03:13:17.208Z,2.72
2022-10-25T03:15:44.573Z,1.27
2022-10-25T03:18:11.388Z,1.13
2022-10-25T03:20:38.056Z,2.92
2022-10-25T03:23:04.910Z,1.08
2022-10-25T03:25:31.418Z,0.93
2022-10-25T03:28:00.259Z,1.98
2022-10-25T03:30:28.120Z,3.70
2022-10-25T03:32:54.664Z,1.60
2022-10-25T03:35:21.397Z,1.55
2022-10-25T03:37:51.497Z,3.38
2022-10-25T03:40:18.789Z,2.25
2022-10-25T03:42:45.553Z,1.60
2022-10-25T03:45:13.015Z,1.95
2022-10-25T03:47:40.142Z,2.67
2022-10-25T03:50:07.315Z,2.08
2022-10-25T03:52:33.739Z,1.25
2022-10-25T03:55:00.105Z,1.73
2022-10-25T03:57:26.445Z,1.80
2022-10-25T03:59:52.760Z,1.67
2022-10-25T04:02:19.190Z,4.40
2022-10-25T04:04:45.626Z,2.78
2022-10-25T04:07:12.034Z,2.92
2022-10-25T04:09:38.404Z,3.33
2022-10-25T04:12:05.051Z,5.13
2022-10-25T04:14:31.433Z,2.83
2022-10-25T04:16:57.831Z,2.17
2022-10-25T04:19:24.246Z,3.85
2022-10-25T04:21:50.635Z,3.58
2022-10-25T04:24:17.047Z,5.72
2022-10-25T04:26:43.415Z,2.55
2022-10-25T04:29:10.910Z,3.50
2022-10-25T04:31:37.263Z,3.25
2022-10-25T04:34:03.599Z,4.88
2022-10-25T04:36:30.874Z,7.88
2022-10-25T04:38:57.314Z,7.72
2022-10-25T04:41:23.960Z,6.15
2022-10-25T04:43:51.218Z,7.40
2022-10-25T04:46:18.040Z,8.55
2022-10-25T04:48:44.484Z,7.93
2022-10-25T04:51:12.020Z,7.38
2022-10-25T04:53:38.385Z,7.90
2022-10-25T04:56:08.119Z,9.40
2022-10-25T04:58:35.482Z,10.85
2022-10-25T05:01:04.863Z,12.55
2022-10-25T05:03:32.046Z,9.15
2022-10-25T05:06:33.999Z,10.13
2022-10-25T05:09:00.489Z,9.35
2022-10-25T05:11:26.909Z,11.80
2022-10-25T05:13:53.315Z,12.75
2022-10-25T05:16:23.234Z,12.40
2022-10-25T05:18:51.248Z,12.35
2022-10-25T05:21:18.372Z,13.80
2022-10-25T05:23:45.604Z,16.00
2022-10-25T05:26:17.797Z,12.40
2022-10-25T05:28:46.333Z,13.75
2022-10-25T05:31:15.698Z,15.23
2022-10-25T05:33:44.996Z,15.07
2022-10-25T05:36:13.144Z,14.40
2022-10-25T05:38:39.855Z,16.60
2022-10-25T05:41:08.124Z,17.83
2022-10-25T05:43:34.527Z,18.65
2022-10-25T05:46:06.975Z,14.43
2022-10-25T05:48:35.128Z,16.85
2022-10-25T05:51:32.627Z,15.27
2022-10-25T05:54:05.495Z,13.23
2022-10-25T05:56:33.116Z,20.85
2022-10-25T05:59:03.828Z,15.75
2022-10-25T06:01:31.348Z,17.50
2022-10-25T06:03:57.976Z,17.35
2022-10-25T06:06:24.686Z,17.95
2022-10-25T06:08:56.278Z,21.02
2022-10-25T06:11:23.004Z,17.23
2022-10-25T06:13:49.630Z,17.35
2022-10-25T06:16:18.628Z,17.17
2022-10-25T06:18:45.836Z,13.80
2022-10-25T06:21:14.952Z,14.00
2022-10-25T06:23:41.756Z,12.75
2022-10-25T06:26:10.630Z,15.30
2022-10-25T06:28:37.652Z,12.10
2022-10-25T06:31:09.464Z,10.63
2022-10-25T06:33:36.136Z,10.20
2022-10-25T06:36:04.191Z,9.75
2022-10-25T06:38:30.938Z,11.73
2022-10-25T06:41:06.014Z,9.88
2022-10-25T06:43:34.823Z,10.80
2022-10-25T06:46:29.219Z,12.05
2022-10-25T06:48:57.568Z,11.45
2022-10-25T06:51:25.071Z,10.50
2022-10-25T06:53:58.690Z,13.27
2022-10-25T06:56:26.416Z,9.27
2022-10-25T06:58:52.852Z,10.05
2022-10-25T07:01:20.798Z,11.05
2022-10-25T07:03:50.231Z,11.05
2022-10-25T07:06:19.124Z,8.85
2022-10-25T07:08:46.883Z,10.88
2022-10-25T07:11:16.200Z,9.88
2022-10-25T07:13:42.771Z,11.48
2022-10-25T07:16:11.317Z,10.02
2022-10-25T07:18:37.834Z,10.27
2022-10-25T07:21:07.146Z,8.38
2022-10-25T07:23:34.056Z,8.82
2022-10-25T07:26:00.500Z,9.93
2022-10-25T07:28:27.252Z,7.85
2022-10-25T07:30:53.949Z,7.75
2022-10-25T07:33:20.813Z,6.85
2022-10-25T07:36:06.107Z,6.93
2022-10-25T07:38:36.571Z,6.75
2022-10-25T07:41:03.332Z,7.50
2022-10-25T07:43:30.167Z,7.07
2022-10-25T07:45:56.861Z,6.97
2022-10-25T07:48:23.401Z,8.68
2022-10-25T07:50:50.202Z,5.53
2022-10-25T07:53:16.663Z,6.13
2022-10-25T07:55:43.044Z,5.93
2022-10-25T07:58:11.372Z,5.50
2022-10-25T08:00:37.916Z,6.75
2022-10-25T08:03:04.530Z,6.07
2022-10-25T08:05:30.975Z,6.72
2022-10-25T08:07:57.331Z,6.38
2022-10-25T08:10:23.657Z,6.88
2022-10-25T08:12:50.989Z,6.95
2022-10-25T08:15:18.184Z,5.07
2022-10-25T08:17:45.551Z,5.72
2022-10-25T08:20:12.282Z,5.50
2022-10-25T08:22:38.716Z,6.53
2022-10-25T08:25:05.522Z,4.78
2022-10-25T08:27:32.310Z,6.10
2022-10-25T08:29:58.894Z,6.78
2022-10-25T08:32:25.283Z,4.47
2022-10-25T08:34:51.624Z,5.70
2022-10-25T08:37:18.251Z,5.18
2022-10-25T08:39:44.933Z,5.28
2022-10-25T08:42:21.586Z,4.72
2022-10-25T08:45:03.990Z,4.82
2022-10-25T08:47:38.124Z,3.90
2022-10-25T08:50:16.610Z,4.60
2022-10-25T08:53:06.439Z,3.72
2022-10-25T08:55:41.591Z,4.10
2022-10-25T08:58:28.428Z,3.38
2022-10-25T09:00:57.990Z,4.47
2022-10-25T09:03:26.963Z,3.63
2022-10-25T09:06:23.767Z,3.92
2022-10-25T09:09:03.960Z,5.80
2022-10-25T09:11:42.228Z,3.80
2022-10-25T09:14:34.188Z,4.28
2022-10-25T09:17:17.380Z,2.60
2022-10-25T09:19:49.433Z,2.45
2022-10-25T09:22:26.946Z,3.05
2022-10-25T09:25:15.135Z,3.05
2022-10-25T09:28:06.520Z,3.03
2022-10-25T09:30:42.734Z,3.25
2022-10-25T09:33:17.947Z,2.40
2022-10-25T09:35:47.451Z,5.90
2022-10-25T09:38:22.187Z,4.63
2022-10-25T09:41:01.073Z,1.35
2022-10-25T09:43:37.066Z,1.60
2022-10-25T09:46:11.668Z,2.72
2022-10-25T09:48:43.792Z,2.95
2022-10-25T09:51:14.739Z,3.03
2022-10-25T09:53:43.123Z,1.75
2022-10-25T09:56:09.567Z,3.28
2022-10-25T09:58:40.361Z,2.83
2022-10-25T10:01:16.173Z,3.53
2022-10-25T10:03:44.612Z,5.88
2022-10-25T10:06:18.204Z,2.50
2022-10-25T10:08:51.132Z,2.75
2022-10-25T10:11:19.203Z,3.22
2022-10-25T10:13:51.815Z,4.65
2022-10-25T10:16:41.651Z,2.85
2022-10-25T10:19:24.372Z,2.72
2022-10-25T10:21:57.563Z,1.50
2022-10-25T10:24:30.254Z,2.65
2022-10-25T10:27:02.659Z,1.98
2022-10-25T10:29:31.352Z,2.40
2022-10-25T10:32:06.543Z,1.30
2022-10-25T10:34:42.990Z,1.05
2022-10-25T10:39:53.364Z,2.08
2022-10-25T10:42:42.580Z,1.17
2022-10-25T10:45:08.878Z,2.30
2022-10-25T10:47:57.155Z,0.80
2022-10-25T10:50:24.252Z,2.08
2022-10-25T10:53:06.288Z,2.30
2022-10-25T10:58:17.225Z,3.60
2022-10-25T11:01:03.541Z,1.67
2022-10-25T11:03:42.433Z,4.03
2022-10-25T11:06:15.439Z,0.70
2022-10-25T11:08:43.976Z,1.45
2022-10-25T11:11:23.742Z,2.80
2022-10-25T11:13:57.964Z,0.50
2022-10-25T11:16:28.055Z,2.03
2022-10-25T11:19:22.179Z,1.67
2022-10-25T11:22:05.692Z,3.28
2022-10-25T11:24:53.887Z,0.88
2022-10-25T11:27:41.469Z,1.75
2022-10-25T11:30:20.087Z,1.63
2022-10-25T11:33:01.488Z,1.85
2022-10-25T11:35:52.744Z,1.00
2022-10-25T11:38:36.370Z,0.90
2022-10-25T11:41:30.712Z,2.72
2022-10-25T11:44:22.794Z,2.40
2022-10-25T11:47:08.211Z,2.78
2022-10-25T11:50:08.732Z,1.77
2022-10-25T11:52:56.851Z,1.30
2022-10-25T11:55:48.409Z,2.33
2022-10-25T11:58:27.910Z,3.70
2022-10-25T12:01:31.279Z,2.72
2022-10-25T12:04:26.810Z,1.67
2022-10-25T12:07:13.047Z,2.33
2022-10-25T12:09:51.084Z,1.40
2022-10-25T12:12:23.694Z,5.22
2022-10-25T12:14:54.394Z,3.28
2022-10-25T12:19:55.262Z,0.70
2022-10-25T12:22:33.849Z,1.45
2022-10-25T12:25:24.826Z,1.40
2022-10-25T12:28:00.700Z,0.70
2022-10-25T12:30:27.374Z,2.40
2022-10-25T12:33:13.025Z,1.40
2022-10-25T12:35:49.546Z,1.77
2022-10-25T12:40:49.714Z,0.80
2022-10-25T12:43:19.278Z,2.38
2022-10-25T12:46:10.889Z,2.72
2022-10-25T12:48:39.863Z,1.42
2022-10-25T12:51:21.439Z,0.90
2022-10-25T12:54:18.869Z,2.03
2022-10-25T12:56:54.159Z,1.30
2022-10-25T12:59:49.896Z,0.60
2022-10-25T13:02:53.663Z,0.80
2022-10-25T13:05:38.846Z,1.80
2022-10-25T13:08:06.878Z,3.33
2022-10-25T13:10:41.675Z,2.72
2022-10-25T13:13:17.942Z,1.63
2022-10-25T13:15:58.991Z,3.15
2022-10-25T13:18:34.428Z,1.33
2022-10-25T13:21:02.506Z,2.28
2022-10-25T13:23:44.143Z,1.58
2022-10-25T13:26:11.963Z,1.65
2022-10-25T13:28:49.856Z,1.42
2022-10-25T13:31:34.566Z,4.13
2022-10-25T13:34:13.023Z,0.88
2022-10-25T13:36:51.434Z,1.50
2022-10-25T13:39:43.772Z,1.55
2022-10-25T13:42:16.136Z,2.00
2022-10-25T13:45:04.408Z,2.28
2022-10-25T13:47:40.883Z,2.50
2022-10-25T13:50:12.203Z,1.00
2022-10-25T13:52:43.675Z,1.00
2022-10-25T13:55:15.453Z,2.72
2022-10-25T13:57:50.730Z,2.38
2022-10-25T14:00:39.663Z,0.47
2022-10-25T14:03:27.439Z,1.30
2022-10-25T14:05:53.897Z,1.58
2022-10-25T14:08:38.256Z,0.75
2022-10-25T14:11:11.516Z,0.50
2022-10-25T14:13:56.304Z,3.92
2022-10-25T14:16:28.892Z,2.63
2022-10-25T14:19:00.074Z,3.63
2022-10-25T14:21:26.767Z,2.20
2022-10-25T14:23:53.354Z,1.88
2022-10-25T14:26:21.259Z,3.17
2022-10-25T14:28:48.033Z,1.17
2022-10-25T14:31:19.922Z,3.13
2022-10-25T14:33:51.748Z,1.25
2022-10-25T14:36:30.263Z,0.65
2022-10-25T14:39:01.826Z,4.28
2022-10-25T14:41:33.993Z,4.35
2022-10-25T14:44:02.136Z,3.28
2022-10-25T14:46:30.237Z,1.13
2022-10-25T14:48:58.428Z,1.90
2022-10-25T14:51:33.896Z,2.90
2022-10-25T14:54:06.790Z,1.25
2022-10-25T14:56:40.550Z,2.17
2022-10-25T14:59:26.492Z,2.88
2022-10-25T15:02:02.286Z,0.93
2022-10-25T15:04:35.104Z,1.35
2022-10-25T15:07:02.459Z,1.98
2022-10-25T15:09:42.345Z,2.15
2022-10-25T15:12:12.418Z,2.15
2022-10-25T15:14:39.814Z,1.75
2022-10-25T15:17:16.249Z,2.58
2022-10-25T15:20:07.035Z,1.63
2022-10-25T15:22:39.392Z,0.90
2022-10-25T15:25:25.949Z,3.75
2022-10-25T15:27:56.668Z,1.30
2022-10-25T15:30:38.660Z,1.73
2022-10-25T15:33:11.040Z,1.40
2022-10-25T15:35:50.926Z,1.83
2022-10-25T15:38:18.685Z,1.10
2022-10-25T15:40:46.646Z,0.70
2022-10-25T15:43:13.086Z,1.25
2022-10-25T15:45:40.155Z,2.45
2022-10-25T15:48:14.201Z,1.88
2022-10-25T15:50:46.550Z,1.85
2022-10-25T15:53:12.951Z,3.17
2022-10-25T15:55:39.274Z,2.47
2022-10-25T15:58:09.706Z,1.80
2022-10-25T16:00:37.906Z,1.45
2022-10-25T16:03:05.024Z,0.90
2022-10-25T16:05:34.298Z,1.80
2022-10-25T16:08:01.199Z,3.55
2022-10-25T16:10:29.570Z,3.25
2022-10-25T16:13:03.951Z,3.58
2022-10-25T16:15:30.938Z,4.05
2022-10-25T16:17:57.329Z,3.08
2022-10-25T16:20:26.368Z,3.38
2022-10-25T16:22:52.906Z,1.60
2022-10-25T16:25:19.920Z,3.60
2022-10-25T16:27:47.347Z,3.47
2022-10-25T16:30:18.878Z,4.75
2022-10-25T16:32:47.352Z,4.82
2022-10-25T16:35:15.741Z,5.15
2022-10-25T16:37:42.943Z,6.07
2022-10-25T16:40:16.093Z,3.70
2022-10-25T16:42:42.639Z,3.47
2022-10-25T16:45:30.768Z,3.58
2022-10-25T16:47:58.430Z,3.30
2022-10-25T16:50:27.230Z,2.47
2022-10-25T16:52:56.262Z,3.00
2022-10-25T16:55:22.728Z,4.00
2022-10-25T17:00:20.524Z,4.47
2022-10-25T17:02:47.166Z,2.30
2022-10-25T17:05:19.812Z,1.88
2022-10-25T17:07:46.534Z,2.17
2022-10-25T17:10:15.180Z,3.85
2022-10-25T17:12:50.604Z,2.30
2022-10-25T17:15:18.089Z,2.83
2022-10-25T17:17:47.896Z,3.40
2022-10-25T17:20:16.939Z,2.05
2022-10-25T17:22:44.078Z,7.43
2022-10-25T17:25:11.085Z,3.88
2022-10-25T17:27:39.801Z,4.55
2022-10-25T17:30:08.024Z,19.08
2022-10-25T17:32:34.435Z,34.85
2022-10-25T17:35:01.361Z,27.27
2022-10-25T17:37:28.547Z,14.73
2022-10-25T17:39:54.922Z,11.15
2022-10-25T17:42:21.346Z,7.40
2022-10-25T17:44:47.787Z,3.50
2022-10-25T17:47:14.930Z,2.65
2022-10-25T17:49:41.967Z,5.45
2022-10-25T17:52:09.636Z,4.20
2022-10-25T17:54:38.396Z,4.47
2022-10-25T17:57:05.816Z,7.78
2022-10-25T17:59:33.040Z,6.57
2022-10-25T18:02:00.732Z,5.85
2022-10-25T18:04:30.870Z,4.53
2022-10-25T18:09:30.371Z,5.75
2022-10-25T18:11:57.760Z,4.25
2022-10-25T18:14:24.271Z,8.35
2022-10-25T18:16:51.391Z,18.77
2022-10-25T18:19:17.799Z,19.27
2022-10-25T18:21:45.258Z,17.08
2022-10-25T18:24:13.103Z,22.38
2022-10-25T18:26:39.436Z,23.27
2022-10-25T18:29:05.917Z,34.83
2022-10-25T18:31:32.279Z,49.58
2022-10-25T18:34:03.191Z,88.32
2022-10-25T18:36:29.798Z,42.10
2022-10-25T18:38:56.498Z,16.65
2022-10-25T18:41:27.171Z,8.60
2022-10-25T18:43:54.837Z,8.32
2022-10-25T18:46:22.359Z,5.60
2022-10-25T18:48:53.053Z,5.45
2022-10-25T18:51:23.099Z,4.43
2022-10-25T18:53:54.528Z,3.92
2022-10-25T18:56:22.291Z,4.53
2022-10-25T18:58:49.212Z,5.72
2022-10-25T19:01:20.571Z,3.78
2022-10-25T19:03:47.042Z,6.90
2022-10-25T19:06:14.462Z,6.70
2022-10-25T19:08:40.868Z,10.73
2022-10-25T19:11:13.089Z,9.68
2022-10-25T19:13:40.759Z,9.02
2022-10-25T19:16:08.420Z,9.18
2022-10-25T19:18:36.732Z,7.50
2022-10-25T19:21:11.429Z,7.22
2022-10-25T19:23:41.375Z,7.35
2022-10-25T19:26:09.869Z,7.00
2022-10-25T19:28:36.602Z,7.03
2022-10-25T19:31:14.560Z,7.32
2022-10-25T19:33:45.508Z,8.35
2022-10-25T19:36:13.980Z,8.10
2022-10-25T19:38:40.764Z,7.22
2022-10-25T19:41:09.430Z,8.40
2022-10-25T19:43:38.952Z,7.75
2022-10-25T19:46:07.310Z,7.43
2022-10-25T19:48:34.500Z,7.40
2022-10-25T19:51:10.716Z,10.18
2022-10-25T19:53:37.463Z,8.15
2022-10-25T19:56:14.795Z,11.75
2022-10-25T19:58:41.443Z,15.32
2022-10-25T20:01:17.334Z,9.35
2022-10-25T20:03:45.366Z,9.25
2022-10-25T20:06:18.693Z,5.57
2022-10-25T20:08:48.778Z,7.38
2022-10-25T20:11:17.186Z,7.00
2022-10-25T20:13:44.227Z,5.60
2022-10-25T20:16:11.112Z,6.13
2022-10-25T20:18:39.666Z,5.07
2022-10-25T20:21:11.325Z,7.05
2022-10-25T20:23:40.379Z,4.03
2022-10-25T20:26:12.415Z,7.25
2022-10-25T20:28:38.791Z,4.22
2022-10-25T20:31:05.508Z,7.70
2022-10-25T20:33:31.916Z,3.65
2022-10-25T20:36:02.823Z,6.05
2022-10-25T20:38:30.326Z,6.47
2022-10-25T20:41:04.939Z,3.67
2022-10-25T20:43:31.671Z,4.38
2022-10-25T20:45:58.368Z,4.85
2022-10-25T20:48:24.753Z,5.75
2022-10-25T20:50:51.991Z,5.95
2022-10-25T20:53:18.706Z,7.28
2022-10-25T20:55:47.975Z,7.95
2022-10-25T20:58:15.529Z,4.88
2022-10-25T21:00:42.012Z,6.38
2022-10-25T21:03:08.327Z,6.68
2022-10-25T21:05:34.712Z,7.32
2022-10-25T21:08:04.920Z,5.03
2022-10-25T21:10:31.300Z,6.25
2022-10-25T21:12:58.642Z,5.75
2022-10-25T21:15:24.978Z,5.07
2022-10-25T21:17:51.547Z,4.80
2022-10-25T21:20:17.977Z,6.35
2022-10-25T21:22:46.258Z,6.88
2022-10-25T21:25:12.605Z,6.43
2022-10-25T21:27:39.032Z,6.68
2022-10-25T21:30:06.276Z,9.50
2022-10-25T21:32:34.334Z,8.23
2022-10-25T21:35:00.820Z,9.02
2022-10-25T21:37:27.867Z,8.43
2022-10-25T21:39:54.203Z,12.30
2022-10-25T21:42:20.543Z,7.97
2022-10-25T21:44:47.963Z,7.40
2022-10-25T21:47:14.464Z,8.05
2022-10-25T21:49:40.835Z,9.40
2022-10-25T21:52:07.151Z,9.10
2022-10-25T21:54:33.478Z,11.00
2022-10-25T21:56:59.791Z,12.35
2022-10-25T21:59:26.163Z,9.30
2022-10-25T22:01:52.666Z,9.93
2022-10-25T22:04:19.074Z,9.25
2022-10-25T22:06:45.438Z,12.75
2022-10-25T22:09:11.788Z,10.30
2022-10-25T22:11:38.928Z,11.27
2022-10-25T22:14:08.112Z,8.75
2022-10-25T22:16:35.024Z,11.80
2022-10-25T22:19:07.943Z,10.32
2022-10-25T22:21:36.702Z,9.73
2022-10-25T22:24:04.947Z,8.25
2022-10-25T22:26:31.309Z,9.63
2022-10-25T22:28:59.110Z,8.50
2022-10-25T22:31:27.638Z,7.75
2022-10-25T22:33:55.827Z,11.32
2022-10-25T22:36:24.500Z,7.20
2022-10-25T22:38:51.156Z,6.88
2022-10-25T22:41:20.154Z,7.85
2022-10-25T22:43:47.771Z,11.90
2022-10-25T22:46:24.934Z,6.28
2022-10-25T22:48:56.049Z,8.77
2022-10-25T22:53:49.509Z,9.02
2022-10-25T22:56:18.755Z,10.63
2022-10-25T22:58:53.653Z,13.18
2022-10-25T23:01:22.715Z,10.32
2022-10-25T23:03:52.052Z,11.18
2022-10-25T23:06:29.575Z,13.50
2022-10-25T23:08:58.158Z,8.88
2022-10-25T23:11:29.916Z,11.02
2022-10-25T23:13:57.397Z,10.50
2022-10-25T23:16:24.309Z,13.68
2022-10-25T23:18:51.408Z,12.30
2022-10-25T23:21:20.198Z,10.43
2022-10-25T23:23:46.874Z,11.32
2022-10-25T23:26:25.295Z,9.68
2022-10-25T23:28:52.006Z,11.18
2022-10-25T23:31:18.644Z,8.50
2022-10-25T23:33:45.211Z,12.63
2022-10-25T23:36:15.517Z,8.82
2022-10-25T23:38:46.021Z,7.68
2022-10-25T23:41:12.774Z,11.13
2022-10-25T23:43:39.236Z,9.90
2022-10-25T23:46:06.731Z,8.90
2022-10-25T23:48:33.469Z,9.77
2022-10-25T23:51:12.169Z,10.52
2022-10-25T23:53:39.256Z,7.45
2022-10-25T23:56:07.786Z,11.60
2022-10-25T23:58:34.629Z,12.20
